sensor_id;sensor_type;location;lat;lon;timestamp;pressure;altitude;pressure_sealevel;temperature;humidity
10978;BME280;5542;48.272;10.794;2023-05-28T00:01:50;95875.34;;;14.55;57.63
10978;BME280;5542;48.272;10.794;2023-05-28T00:04:16;95866.28;;;14.51;57.95
10978;BME280;5542;48.272;10.794;2023-05-28T00:06:43;95873.69;;;14.49;57.79
10978;BME280;5542;48.272;10.794;2023-05-28T00:09:09;95861.97;;;14.45;57.90
10978;BME280;5542;48.272;10.794;2023-05-28T00:11:36;95865.09;;;14.42;58.00
10978;BME280;5542;48.272;10.794;2023-05-28T00:14:04;95857.91;;;14.38;58.15
10978;BME280;5542;48.272;10.794;2023-05-28T00:16:30;95855.00;;;14.34;58.24
10978;BME280;5542;48.272;10.794;2023-05-28T00:19:00;95860.50;;;14.32;58.38
10978;BME280;5542;48.272;10.794;2023-05-28T00:21:27;95848.03;;;14.28;58.14
10978;BME280;5542;48.272;10.794;2023-05-28T00:23:54;95852.22;;;14.24;58.36
10978;BME280;5542;48.272;10.794;2023-05-28T00:26:20;95843.47;;;14.23;58.45
10978;BME280;5542;48.272;10.794;2023-05-28T00:28:47;95839.72;;;14.19;58.42
10978;BME280;5542;48.272;10.794;2023-05-28T00:31:15;95846.81;;;14.14;58.62
10978;BME280;5542;48.272;10.794;2023-05-28T00:33:41;95842.03;;;14.11;58.67
10978;BME280;5542;48.272;10.794;2023-05-28T00:36:08;95841.47;;;14.08;59.07
10978;BME280;5542;48.272;10.794;2023-05-28T00:38:35;95843.00;;;14.04;58.96
10978;BME280;5542;48.272;10.794;2023-05-28T00:41:02;95845.16;;;14.07;58.72
10978;BME280;5542;48.272;10.794;2023-05-28T00:43:29;95840.13;;;14.06;58.81
10978;BME280;5542;48.272;10.794;2023-05-28T00:45:58;95834.03;;;14.05;58.68
10978;BME280;5542;48.272;10.794;2023-05-28T00:48:28;95831.31;;;14.00;58.83
10978;BME280;5542;48.272;10.794;2023-05-28T00:50:55;95829.19;;;13.97;59.05
10978;BME280;5542;48.272;10.794;2023-05-28T00:53:23;95827.59;;;13.96;58.64
10978;BME280;5542;48.272;10.794;2023-05-28T00:55:50;95829.44;;;13.96;58.74
10978;BME280;5542;48.272;10.794;2023-05-28T00:58:18;95828.31;;;13.92;58.71
10978;BME280;5542;48.272;10.794;2023-05-28T01:00:45;95825.84;;;13.85;58.67
10978;BME280;5542;48.272;10.794;2023-05-28T01:03:12;95824.25;;;13.84;58.55
10978;BME280;5542;48.272;10.794;2023-05-28T01:05:40;95829.47;;;13.79;58.48
10978;BME280;5542;48.272;10.794;2023-05-28T01:08:07;95829.16;;;13.75;58.20
10978;BME280;5542;48.272;10.794;2023-05-28T01:10:35;95829.53;;;13.62;58.17
10978;BME280;5542;48.272;10.794;2023-05-28T01:13:04;95824.41;;;13.55;58.51
10978;BME280;5542;48.272;10.794;2023-05-28T01:15:31;95827.00;;;13.50;59.07
10978;BME280;5542;48.272;10.794;2023-05-28T01:17:59;95823.31;;;13.51;59.16
10978;BME280;5542;48.272;10.794;2023-05-28T01:20:27;95824.91;;;13.52;58.95
10978;BME280;5542;48.272;10.794;2023-05-28T01:22:59;95828.06;;;13.49;59.00
10978;BME280;5542;48.272;10.794;2023-05-28T01:25:28;95830.44;;;13.51;59.39
10978;BME280;5542;48.272;10.794;2023-05-28T01:27:55;95819.06;;;13.50;59.16
10978;BME280;5542;48.272;10.794;2023-05-28T01:30:22;95824.84;;;13.47;59.17
10978;BME280;5542;48.272;10.794;2023-05-28T01:32:48;95811.88;;;13.46;59.35
10978;BME280;5542;48.272;10.794;2023-05-28T01:35:15;95820.13;;;13.32;59.20
10978;BME280;5542;48.272;10.794;2023-05-28T01:37:46;95819.53;;;13.25;59.55
10978;BME280;5542;48.272;10.794;2023-05-28T01:40:14;95817.34;;;13.22;59.64
10978;BME280;5542;48.272;10.794;2023-05-28T01:42:45;95821.84;;;13.22;59.75
10978;BME280;5542;48.272;10.794;2023-05-28T01:45:12;95822.88;;;13.21;59.87
10978;BME280;5542;48.272;10.794;2023-05-28T01:47:39;95818.31;;;13.16;59.84
10978;BME280;5542;48.272;10.794;2023-05-28T01:50:07;95814.88;;;13.16;59.85
10978;BME280;5542;48.272;10.794;2023-05-28T01:52:34;95816.38;;;13.12;59.75
10978;BME280;5542;48.272;10.794;2023-05-28T01:55:01;95816.06;;;13.08;60.09
10978;BME280;5542;48.272;10.794;2023-05-28T01:57:29;95812.88;;;13.06;59.77
10978;BME280;5542;48.272;10.794;2023-05-28T01:59:57;95826.31;;;13.04;60.06
10978;BME280;5542;48.272;10.794;2023-05-28T02:02:23;95822.31;;;13.02;60.17
10978;BME280;5542;48.272;10.794;2023-05-28T02:04:52;95815.66;;;12.99;60.22
10978;BME280;5542;48.272;10.794;2023-05-28T02:07:18;95821.91;;;12.93;60.39
10978;BME280;5542;48.272;10.794;2023-05-28T02:09:45;95817.69;;;12.92;60.85
10978;BME280;5542;48.272;10.794;2023-05-28T02:12:11;95822.25;;;12.97;60.74
10978;BME280;5542;48.272;10.794;2023-05-28T02:14:38;95820.41;;;12.97;60.95
10978;BME280;5542;48.272;10.794;2023-05-28T02:17:07;95817.75;;;12.97;60.82
10978;BME280;5542;48.272;10.794;2023-05-28T02:19:34;95821.91;;;12.93;61.08
10978;BME280;5542;48.272;10.794;2023-05-28T02:22:01;95816.63;;;12.93;60.82
10978;BME280;5542;48.272;10.794;2023-05-28T02:24:29;95817.09;;;12.90;60.86
10978;BME280;5542;48.272;10.794;2023-05-28T02:26:55;95811.19;;;12.83;61.10
10978;BME280;5542;48.272;10.794;2023-05-28T02:29:22;95809.13;;;12.68;61.51
10978;BME280;5542;48.272;10.794;2023-05-28T02:31:49;95814.38;;;12.51;62.06
10978;BME280;5542;48.272;10.794;2023-05-28T02:34:17;95812.50;;;12.35;62.51
10978;BME280;5542;48.272;10.794;2023-05-28T02:36:43;95818.34;;;12.09;63.87
10978;BME280;5542;48.272;10.794;2023-05-28T02:39:10;95812.09;;;11.86;64.60
10978;BME280;5542;48.272;10.794;2023-05-28T02:41:37;95807.53;;;11.70;64.96
10978;BME280;5542;48.272;10.794;2023-05-28T02:44:03;95812.03;;;11.58;65.72
10978;BME280;5542;48.272;10.794;2023-05-28T02:46:30;95810.31;;;11.63;65.25
10978;BME280;5542;48.272;10.794;2023-05-28T02:48:57;95813.66;;;11.59;65.54
10978;BME280;5542;48.272;10.794;2023-05-28T02:51:25;95812.41;;;11.49;66.03
10978;BME280;5542;48.272;10.794;2023-05-28T02:53:52;95816.53;;;11.22;66.90
10978;BME280;5542;48.272;10.794;2023-05-28T02:56:18;95815.84;;;11.15;67.26
10978;BME280;5542;48.272;10.794;2023-05-28T02:58:46;95818.47;;;11.15;67.41
10978;BME280;5542;48.272;10.794;2023-05-28T03:01:12;95817.00;;;11.19;67.28
10978;BME280;5542;48.272;10.794;2023-05-28T03:03:39;95818.34;;;11.33;66.77
10978;BME280;5542;48.272;10.794;2023-05-28T03:06:06;95819.41;;;11.32;66.68
10978;BME280;5542;48.272;10.794;2023-05-28T03:08:35;95814.03;;;11.27;66.80
10978;BME280;5542;48.272;10.794;2023-05-28T03:11:01;95815.03;;;11.38;66.50
10978;BME280;5542;48.272;10.794;2023-05-28T03:13:28;95821.00;;;11.45;66.48
10978;BME280;5542;48.272;10.794;2023-05-28T03:15:54;95815.94;;;11.55;65.93
10978;BME280;5542;48.272;10.794;2023-05-28T03:18:21;95812.72;;;11.65;65.84
10978;BME280;5542;48.272;10.794;2023-05-28T03:20:48;95819.22;;;11.74;65.53
10978;BME280;5542;48.272;10.794;2023-05-28T03:23:16;95822.34;;;11.83;65.32
10978;BME280;5542;48.272;10.794;2023-05-28T03:25:44;95820.00;;;11.86;64.82
10978;BME280;5542;48.272;10.794;2023-05-28T03:28:11;95820.09;;;11.91;64.49
10978;BME280;5542;48.272;10.794;2023-05-28T03:30:37;95824.38;;;11.92;64.29
10978;BME280;5542;48.272;10.794;2023-05-28T03:33:04;95816.47;;;11.92;64.19
10978;BME280;5542;48.272;10.794;2023-05-28T03:35:33;95820.94;;;11.92;63.91
10978;BME280;5542;48.272;10.794;2023-05-28T03:37:59;95821.72;;;11.92;63.96
10978;BME280;5542;48.272;10.794;2023-05-28T03:40:26;95823.56;;;11.92;64.08
10978;BME280;5542;48.272;10.794;2023-05-28T03:42:54;95823.31;;;11.93;63.81
10978;BME280;5542;48.272;10.794;2023-05-28T03:45:21;95829.84;;;11.91;63.85
10978;BME280;5542;48.272;10.794;2023-05-28T03:47:47;95832.81;;;11.94;63.78
10978;BME280;5542;48.272;10.794;2023-05-28T03:50:14;95827.56;;;11.94;63.63
10978;BME280;5542;48.272;10.794;2023-05-28T03:52:41;95830.19;;;11.94;63.81
10978;BME280;5542;48.272;10.794;2023-05-28T03:55:08;95834.91;;;11.92;63.84
10978;BME280;5542;48.272;10.794;2023-05-28T03:57:34;95837.53;;;11.92;63.88
10978;BME280;5542;48.272;10.794;2023-05-28T04:00:03;95833.63;;;11.95;63.55
10978;BME280;5542;48.272;10.794;2023-05-28T04:02:32;95838.19;;;11.99;63.82
10978;BME280;5542;48.272;10.794;2023-05-28T04:05:01;95832.38;;;11.97;63.58
10978;BME280;5542;48.272;10.794;2023-05-28T04:07:28;95838.69;;;11.96;63.76
10978;BME280;5542;48.272;10.794;2023-05-28T04:09:55;95842.66;;;11.99;63.68
10978;BME280;5542;48.272;10.794;2023-05-28T04:12:21;95832.47;;;12.02;63.63
10978;BME280;5542;48.272;10.794;2023-05-28T04:14:48;95834.84;;;12.04;63.68
10978;BME280;5542;48.272;10.794;2023-05-28T04:17:16;95838.88;;;12.07;63.42
10978;BME280;5542;48.272;10.794;2023-05-28T04:19:44;95833.81;;;12.05;63.65
10978;BME280;5542;48.272;10.794;2023-05-28T04:22:10;95834.41;;;12.07;63.74
10978;BME280;5542;48.272;10.794;2023-05-28T04:24:37;95837.59;;;12.09;63.77
10978;BME280;5542;48.272;10.794;2023-05-28T04:27:04;95840.31;;;12.14;63.47
10978;BME280;5542;48.272;10.794;2023-05-28T04:29:31;95846.41;;;12.15;63.60
10978;BME280;5542;48.272;10.794;2023-05-28T04:31:58;95849.13;;;12.20;63.36
10978;BME280;5542;48.272;10.794;2023-05-28T04:34:26;95842.13;;;12.25;63.42
10978;BME280;5542;48.272;10.794;2023-05-28T04:36:53;95848.50;;;12.29;63.47
10978;BME280;5542;48.272;10.794;2023-05-28T04:39:22;95847.81;;;12.34;63.32
10978;BME280;5542;48.272;10.794;2023-05-28T04:41:48;95849.66;;;12.34;63.35
10978;BME280;5542;48.272;10.794;2023-05-28T04:44:16;95842.66;;;12.39;63.51
10978;BME280;5542;48.272;10.794;2023-05-28T04:46:43;95849.75;;;12.39;63.32
10978;BME280;5542;48.272;10.794;2023-05-28T04:49:10;95847.44;;;12.42;63.34
10978;BME280;5542;48.272;10.794;2023-05-28T04:51:38;95845.69;;;12.48;62.80
10978;BME280;5542;48.272;10.794;2023-05-28T04:54:05;95850.78;;;12.38;62.61
10978;BME280;5542;48.272;10.794;2023-05-28T04:56:31;95848.16;;;12.38;62.61
10978;BME280;5542;48.272;10.794;2023-05-28T04:58:58;95845.88;;;12.58;60.75
10978;BME280;5542;48.272;10.794;2023-05-28T05:01:25;95851.88;;;12.53;61.54
10978;BME280;5542;48.272;10.794;2023-05-28T05:03:53;95853.59;;;12.48;61.63
10978;BME280;5542;48.272;10.794;2023-05-28T05:06:19;95838.19;;;12.56;60.77
10978;BME280;5542;48.272;10.794;2023-05-28T05:08:47;95846.88;;;12.40;61.11
10978;BME280;5542;48.272;10.794;2023-05-28T05:11:14;95842.66;;;12.39;60.41
10978;BME280;5542;48.272;10.794;2023-05-28T05:13:40;95844.16;;;12.35;60.54
10978;BME280;5542;48.272;10.794;2023-05-28T05:16:07;95850.31;;;12.41;60.81
10978;BME280;5542;48.272;10.794;2023-05-28T05:18:34;95843.34;;;12.35;61.70
10978;BME280;5542;48.272;10.794;2023-05-28T05:21:00;95856.25;;;12.48;61.63
10978;BME280;5542;48.272;10.794;2023-05-28T05:23:27;95847.69;;;12.57;60.68
10978;BME280;5542;48.272;10.794;2023-05-28T05:25:55;95848.03;;;12.61;60.86
10978;BME280;5542;48.272;10.794;2023-05-28T05:28:22;95857.63;;;12.67;60.61
10978;BME280;5542;48.272;10.794;2023-05-28T05:30:48;95856.75;;;12.62;61.57
10978;BME280;5542;48.272;10.794;2023-05-28T05:33:15;95842.78;;;12.78;61.77
10978;BME280;5542;48.272;10.794;2023-05-28T05:35:42;95850.88;;;12.88;61.60
10978;BME280;5542;48.272;10.794;2023-05-28T05:38:08;95845.28;;;13.01;61.59
10978;BME280;5542;48.272;10.794;2023-05-28T05:40:36;95849.56;;;12.91;61.80
10978;BME280;5542;48.272;10.794;2023-05-28T05:43:04;95853.13;;;12.96;62.29
10978;BME280;5542;48.272;10.794;2023-05-28T05:45:30;95855.03;;;13.01;63.25
10978;BME280;5542;48.272;10.794;2023-05-28T05:47:57;95849.50;;;13.02;63.22
10978;BME280;5542;48.272;10.794;2023-05-28T05:50:23;95844.38;;;13.13;62.01
10978;BME280;5542;48.272;10.794;2023-05-28T05:52:50;95840.41;;;13.27;62.05
10978;BME280;5542;48.272;10.794;2023-05-28T05:55:17;95846.41;;;13.39;62.84
10978;BME280;5542;48.272;10.794;2023-05-28T05:57:43;95845.31;;;13.57;62.83
10978;BME280;5542;48.272;10.794;2023-05-28T06:00:13;95851.16;;;13.81;62.73
10978;BME280;5542;48.272;10.794;2023-05-28T06:02:40;95844.63;;;14.05;59.89
10978;BME280;5542;48.272;10.794;2023-05-28T06:05:08;95840.72;;;14.13;60.79
10978;BME280;5542;48.272;10.794;2023-05-28T06:07:35;95843.78;;;14.27;60.85
10978;BME280;5542;48.272;10.794;2023-05-28T06:10:02;95840.75;;;14.40;60.16
10978;BME280;5542;48.272;10.794;2023-05-28T06:12:30;95844.38;;;14.56;59.13
10978;BME280;5542;48.272;10.794;2023-05-28T06:14:57;95845.38;;;14.77;59.68
10978;BME280;5542;48.272;10.794;2023-05-28T06:17:27;95855.09;;;14.98;58.41
10978;BME280;5542;48.272;10.794;2023-05-28T06:19:53;95851.47;;;15.09;56.02
10978;BME280;5542;48.272;10.794;2023-05-28T06:22:20;95854.16;;;15.15;57.76
10978;BME280;5542;48.272;10.794;2023-05-28T06:24:47;95848.91;;;15.20;56.66
10978;BME280;5542;48.272;10.794;2023-05-28T06:27:19;95849.03;;;15.40;56.85
10978;BME280;5542;48.272;10.794;2023-05-28T06:29:46;95852.88;;;15.59;57.60
10978;BME280;5542;48.272;10.794;2023-05-28T06:32:13;95854.41;;;15.93;56.25
10978;BME280;5542;48.272;10.794;2023-05-28T06:34:41;95839.19;;;15.73;51.32
10978;BME280;5542;48.272;10.794;2023-05-28T06:37:11;95846.09;;;15.74;53.01
10978;BME280;5542;48.272;10.794;2023-05-28T06:39:38;95848.75;;;15.79;54.13
10978;BME280;5542;48.272;10.794;2023-05-28T06:42:05;95843.28;;;15.96;50.91
10978;BME280;5542;48.272;10.794;2023-05-28T06:44:40;95842.41;;;15.85;51.44
10978;BME280;5542;48.272;10.794;2023-05-28T06:47:07;95849.22;;;15.66;53.08
10978;BME280;5542;48.272;10.794;2023-05-28T06:49:33;95844.47;;;15.68;51.98
10978;BME280;5542;48.272;10.794;2023-05-28T06:52:08;95845.56;;;15.77;52.00
10978;BME280;5542;48.272;10.794;2023-05-28T06:58:08;95831.16;;;16.15;51.61
10978;BME280;5542;48.272;10.794;2023-05-28T07:00:39;95832.81;;;16.52;50.99
10978;BME280;5542;48.272;10.794;2023-05-28T07:03:12;95827.28;;;16.69;49.92
10978;BME280;5542;48.272;10.794;2023-05-28T07:05:44;95828.91;;;16.80;50.58
10978;BME280;5542;48.272;10.794;2023-05-28T07:08:16;95829.41;;;17.28;49.56
10978;BME280;5542;48.272;10.794;2023-05-28T07:10:45;95832.88;;;17.23;48.08
10978;BME280;5542;48.272;10.794;2023-05-28T07:13:13;95827.53;;;17.49;50.08
10978;BME280;5542;48.272;10.794;2023-05-28T07:15:49;95828.47;;;17.99;46.77
10978;BME280;5542;48.272;10.794;2023-05-28T07:18:16;95833.69;;;18.24;47.13
10978;BME280;5542;48.272;10.794;2023-05-28T07:21:03;95828.09;;;18.26;46.86
10978;BME280;5542;48.272;10.794;2023-05-28T07:23:49;95832.53;;;18.40;44.71
10978;BME280;5542;48.272;10.794;2023-05-28T07:26:21;95827.00;;;18.32;44.68
10978;BME280;5542;48.272;10.794;2023-05-28T07:28:52;95834.50;;;18.25;45.50
10978;BME280;5542;48.272;10.794;2023-05-28T07:31:24;95834.56;;;18.59;50.74
10978;BME280;5542;48.272;10.794;2023-05-28T07:33:51;95826.16;;;19.20;44.91
10978;BME280;5542;48.272;10.794;2023-05-28T07:36:18;95828.53;;;19.51;49.80
10978;BME280;5542;48.272;10.794;2023-05-28T07:38:46;95821.16;;;19.95;42.64
10978;BME280;5542;48.272;10.794;2023-05-28T07:41:13;95821.53;;;19.84;44.08
10978;BME280;5542;48.272;10.794;2023-05-28T07:43:39;95822.06;;;19.86;43.73
10978;BME280;5542;48.272;10.794;2023-05-28T07:46:06;95825.00;;;20.08;42.66
10978;BME280;5542;48.272;10.794;2023-05-28T07:48:33;95821.94;;;20.39;47.07
10978;BME280;5542;48.272;10.794;2023-05-28T07:50:59;95815.91;;;20.71;41.36
10978;BME280;5542;48.272;10.794;2023-05-28T07:53:26;95815.53;;;20.59;41.90
10978;BME280;5542;48.272;10.794;2023-05-28T07:55:54;95807.09;;;20.52;42.16
10978;BME280;5542;48.272;10.794;2023-05-28T07:58:21;95815.19;;;20.84;45.30
10978;BME280;5542;48.272;10.794;2023-05-28T08:00:48;95805.47;;;21.67;43.21
10978;BME280;5542;48.272;10.794;2023-05-28T08:03:14;95785.91;;;22.36;37.68
10978;BME280;5542;48.272;10.794;2023-05-28T08:05:41;95793.88;;;22.63;38.43
10978;BME280;5542;48.272;10.794;2023-05-28T08:08:08;95792.06;;;22.72;37.44
10978;BME280;5542;48.272;10.794;2023-05-28T08:10:35;95789.91;;;22.24;36.93
10978;BME280;5542;48.272;10.794;2023-05-28T08:13:03;95793.78;;;22.05;37.54
10978;BME280;5542;48.272;10.794;2023-05-28T08:15:29;95788.63;;;21.67;37.06
10978;BME280;5542;48.272;10.794;2023-05-28T08:17:56;95791.97;;;21.45;35.96
10978;BME280;5542;48.272;10.794;2023-05-28T08:20:23;95796.88;;;21.24;37.11
10978;BME280;5542;48.272;10.794;2023-05-28T08:22:49;95787.63;;;21.16;34.37
10978;BME280;5542;48.272;10.794;2023-05-28T08:25:16;95790.25;;;21.03;35.17
10978;BME280;5542;48.272;10.794;2023-05-28T08:27:42;95785.97;;;21.20;35.12
10978;BME280;5542;48.272;10.794;2023-05-28T08:30:11;95789.91;;;21.09;35.01
10978;BME280;5542;48.272;10.794;2023-05-28T08:32:38;95790.25;;;21.03;35.14
10978;BME280;5542;48.272;10.794;2023-05-28T08:35:05;95792.47;;;20.82;36.26
10978;BME280;5542;48.272;10.794;2023-05-28T08:37:31;95795.00;;;20.92;38.37
10978;BME280;5542;48.272;10.794;2023-05-28T08:39:58;95796.97;;;21.19;42.22
10978;BME280;5542;48.272;10.794;2023-05-28T08:42:25;95794.38;;;21.88;39.70
10978;BME280;5542;48.272;10.794;2023-05-28T08:44:52;95790.50;;;22.21;38.88
10978;BME280;5542;48.272;10.794;2023-05-28T08:47:21;95789.25;;;22.78;35.94
10978;BME280;5542;48.272;10.794;2023-05-28T08:49:51;95776.59;;;22.69;34.41
10978;BME280;5542;48.272;10.794;2023-05-28T08:52:19;95779.31;;;22.78;34.12
10978;BME280;5542;48.272;10.794;2023-05-28T08:54:47;95778.56;;;22.64;32.45
10978;BME280;5542;48.272;10.794;2023-05-28T08:57:14;95766.31;;;22.49;32.79
10978;BME280;5542;48.272;10.794;2023-05-28T08:59:40;95774.22;;;22.32;32.31
10978;BME280;5542;48.272;10.794;2023-05-28T09:02:07;95778.09;;;21.98;31.30
10978;BME280;5542;48.272;10.794;2023-05-28T09:04:38;95771.28;;;21.64;33.24
10978;BME280;5542;48.272;10.794;2023-05-28T09:07:05;95771.97;;;21.56;33.20
10978;BME280;5542;48.272;10.794;2023-05-28T09:09:33;95773.16;;;21.78;35.07
10978;BME280;5542;48.272;10.794;2023-05-28T09:12:02;95766.03;;;21.73;33.13
10978;BME280;5542;48.272;10.794;2023-05-28T09:14:37;95769.56;;;22.10;33.43
10978;BME280;5542;48.272;10.794;2023-05-28T09:17:04;95765.53;;;21.98;34.09
10978;BME280;5542;48.272;10.794;2023-05-28T09:19:30;95762.75;;;21.62;33.37
10978;BME280;5542;48.272;10.794;2023-05-28T09:21:58;95778.41;;;21.83;32.52
10978;BME280;5542;48.272;10.794;2023-05-28T09:24:27;95760.06;;;22.04;31.94
10978;BME280;5542;48.272;10.794;2023-05-28T09:26:55;95767.59;;;22.15;31.77
10978;BME280;5542;48.272;10.794;2023-05-28T09:29:22;95757.28;;;21.95;31.25
10978;BME280;5542;48.272;10.794;2023-05-28T09:31:54;95747.78;;;21.89;31.75
10978;BME280;5542;48.272;10.794;2023-05-28T09:34:25;95747.59;;;21.85;30.45
10978;BME280;5542;48.272;10.794;2023-05-28T09:36:51;95747.69;;;21.80;31.58
10978;BME280;5542;48.272;10.794;2023-05-28T09:39:23;95757.50;;;21.57;32.00
10978;BME280;5542;48.272;10.794;2023-05-28T09:41:57;95750.56;;;21.56;33.58
10978;BME280;5542;48.272;10.794;2023-05-28T09:44:29;95749.16;;;21.86;32.89
10978;BME280;5542;48.272;10.794;2023-05-28T09:46:56;95747.34;;;22.09;32.61
10978;BME280;5542;48.272;10.794;2023-05-28T09:49:23;95750.88;;;22.46;33.48
10978;BME280;5542;48.272;10.794;2023-05-28T09:51:52;95755.19;;;22.56;34.98
10978;BME280;5542;48.272;10.794;2023-05-28T09:54:21;95755.13;;;22.47;34.74
10978;BME280;5542;48.272;10.794;2023-05-28T09:56:51;95754.78;;;22.85;32.77
10978;BME280;5542;48.272;10.794;2023-05-28T09:59:19;95760.00;;;22.67;33.05
10978;BME280;5542;48.272;10.794;2023-05-28T10:01:54;95757.91;;;22.64;32.47
10978;BME280;5542;48.272;10.794;2023-05-28T10:04:27;95756.59;;;22.53;34.19
10978;BME280;5542;48.272;10.794;2023-05-28T10:06:56;95754.63;;;22.45;33.33
10978;BME280;5542;48.272;10.794;2023-05-28T10:09:26;95753.06;;;22.30;32.60
10978;BME280;5542;48.272;10.794;2023-05-28T10:11:56;95753.97;;;22.26;33.36
10978;BME280;5542;48.272;10.794;2023-05-28T10:14:26;95750.88;;;22.46;33.51
10978;BME280;5542;48.272;10.794;2023-05-28T10:16:53;95755.66;;;22.94;32.27
10978;BME280;5542;48.272;10.794;2023-05-28T10:19:20;95745.75;;;23.34;33.06
10978;BME280;5542;48.272;10.794;2023-05-28T10:21:47;95745.94;;;23.38;30.96
10978;BME280;5542;48.272;10.794;2023-05-28T10:24:14;95755.00;;;23.50;31.88
10978;BME280;5542;48.272;10.794;2023-05-28T10:26:42;95749.31;;;23.52;30.76
10978;BME280;5542;48.272;10.794;2023-05-28T10:29:09;95746.56;;;23.66;30.61
10978;BME280;5542;48.272;10.794;2023-05-28T10:31:35;95747.72;;;23.91;30.17
10978;BME280;5542;48.272;10.794;2023-05-28T10:34:04;95744.13;;;24.04;30.12
10978;BME280;5542;48.272;10.794;2023-05-28T10:36:49;95748.06;;;23.18;30.30
10978;BME280;5542;48.272;10.794;2023-05-28T10:39:15;95751.22;;;23.20;30.38
10978;BME280;5542;48.272;10.794;2023-05-28T10:41:43;95747.56;;;23.16;29.63
10978;BME280;5542;48.272;10.794;2023-05-28T10:44:10;95747.31;;;23.27;30.84
10978;BME280;5542;48.272;10.794;2023-05-28T10:46:37;95742.84;;;23.53;32.79
10978;BME280;5542;48.272;10.794;2023-05-28T10:49:09;95733.50;;;23.42;28.79
10978;BME280;5542;48.272;10.794;2023-05-28T10:51:51;95733.81;;;23.49;31.81
10978;BME280;5542;48.272;10.794;2023-05-28T10:54:23;95731.34;;;23.61;29.67
10978;BME280;5542;48.272;10.794;2023-05-28T10:57:07;95728.56;;;23.66;29.21
10978;BME280;5542;48.272;10.794;2023-05-28T10:59:47;95735.22;;;23.38;29.35
10978;BME280;5542;48.272;10.794;2023-05-28T11:02:21;95730.94;;;23.06;29.35
10978;BME280;5542;48.272;10.794;2023-05-28T11:04:52;95734.72;;;23.05;31.37
10978;BME280;5542;48.272;10.794;2023-05-28T11:07:20;95735.38;;;22.88;27.76
10978;BME280;5542;48.272;10.794;2023-05-28T11:09:48;95730.13;;;22.83;27.96
10978;BME280;5542;48.272;10.794;2023-05-28T11:12:17;95727.88;;;22.90;26.80
10978;BME280;5542;48.272;10.794;2023-05-28T11:14:45;95722.06;;;23.28;26.98
10978;BME280;5542;48.272;10.794;2023-05-28T11:17:12;95707.41;;;23.34;28.18
10978;BME280;5542;48.272;10.794;2023-05-28T11:19:43;95714.53;;;23.69;28.77
10978;BME280;5542;48.272;10.794;2023-05-28T11:22:10;95705.75;;;23.55;27.66
10978;BME280;5542;48.272;10.794;2023-05-28T11:24:50;95714.31;;;23.26;28.42
10978;BME280;5542;48.272;10.794;2023-05-28T11:27:20;95708.94;;;23.26;28.84
10978;BME280;5542;48.272;10.794;2023-05-28T11:29:47;95699.28;;;23.56;27.92
10978;BME280;5542;48.272;10.794;2023-05-28T11:32:14;95705.75;;;23.55;26.84
10978;BME280;5542;48.272;10.794;2023-05-28T11:34:40;95701.00;;;23.52;27.14
10978;BME280;5542;48.272;10.794;2023-05-28T11:37:07;95707.75;;;23.41;28.59
10978;BME280;5542;48.272;10.794;2023-05-28T11:39:33;95705.41;;;23.48;27.12
10978;BME280;5542;48.272;10.794;2023-05-28T11:42:00;95703.84;;;23.16;29.63
10978;BME280;5542;48.272;10.794;2023-05-28T11:44:28;95696.75;;;23.51;28.50
10978;BME280;5542;48.272;10.794;2023-05-28T11:46:55;95697.00;;;23.81;29.24
10978;BME280;5542;48.272;10.794;2023-05-28T11:49:22;95689.34;;;23.57;26.37
10978;BME280;5542;48.272;10.794;2023-05-28T11:51:52;95699.06;;;23.44;28.25
10978;BME280;5542;48.272;10.794;2023-05-28T11:54:20;95700.00;;;23.39;27.22
10978;BME280;5542;48.272;10.794;2023-05-28T11:56:49;95695.28;;;23.45;26.05
10978;BME280;5542;48.272;10.794;2023-05-28T11:59:16;95701.00;;;23.52;28.69
10978;BME280;5542;48.272;10.794;2023-05-28T12:01:45;95700.94;;;23.74;27.77
10978;BME280;5542;48.272;10.794;2023-05-28T12:04:12;95696.44;;;23.61;28.26
10978;BME280;5542;48.272;10.794;2023-05-28T12:06:51;95696.34;;;23.66;26.27
10978;BME280;5542;48.272;10.794;2023-05-28T12:09:18;95693.06;;;23.87;27.19
10978;BME280;5542;48.272;10.794;2023-05-28T12:12:03;95689.00;;;23.58;27.68
10978;BME280;5542;48.272;10.794;2023-05-28T12:14:31;95691.44;;;23.68;28.71
10978;BME280;5542;48.272;10.794;2023-05-28T12:17:05;95691.69;;;23.58;26.49
10978;BME280;5542;48.272;10.794;2023-05-28T12:19:33;95688.16;;;23.32;28.11
10978;BME280;5542;48.272;10.794;2023-05-28T12:21:59;95691.09;;;23.21;28.70
10978;BME280;5542;48.272;10.794;2023-05-28T12:24:27;95699.03;;;23.27;28.75
10978;BME280;5542;48.272;10.794;2023-05-28T12:26:54;95693.53;;;23.40;27.81
10978;BME280;5542;48.272;10.794;2023-05-28T12:29:21;95690.66;;;23.28;27.61
10978;BME280;5542;48.272;10.794;2023-05-28T12:31:56;95680.50;;;23.56;28.16
10978;BME280;5542;48.272;10.794;2023-05-28T12:34:24;95690.88;;;23.89;28.54
10978;BME280;5542;48.272;10.794;2023-05-28T12:36:51;95673.81;;;24.11;24.98
10978;BME280;5542;48.272;10.794;2023-05-28T12:39:18;95679.66;;;24.04;25.33
10978;BME280;5542;48.272;10.794;2023-05-28T12:41:44;95679.47;;;23.83;26.25
10978;BME280;5542;48.272;10.794;2023-05-28T12:44:11;95680.41;;;23.70;26.78
10978;BME280;5542;48.272;10.794;2023-05-28T12:46:37;95676.34;;;23.41;25.82
10978;BME280;5542;48.272;10.794;2023-05-28T12:49:04;95676.31;;;23.33;27.19
10978;BME280;5542;48.272;10.794;2023-05-28T12:51:32;95669.22;;;23.37;27.82
10978;BME280;5542;48.272;10.794;2023-05-28T12:53:58;95664.28;;;23.70;29.29
10978;BME280;5542;48.272;10.794;2023-05-28T12:56:26;95658.63;;;24.23;28.48
10978;BME280;5542;48.272;10.794;2023-05-28T12:58:53;95655.47;;;24.30;26.40
10978;BME280;5542;48.272;10.794;2023-05-28T13:01:19;95654.22;;;23.93;26.83
10978;BME280;5542;48.272;10.794;2023-05-28T13:03:46;95656.19;;;23.61;27.33
10978;BME280;5542;48.272;10.794;2023-05-28T13:06:13;95655.41;;;23.61;27.50
10978;BME280;5542;48.272;10.794;2023-05-28T13:08:48;95659.50;;;23.58;28.47